Search for airport 
image banner adimage banner adimage banner ad
image banner ad

76CN - El Centro Rgnl Medical Center

Located in El Centro, United States

ICAO - 76CN, IATA -

Data provided by Airmate  

General information

Coordinates: N32°46'47" W115°34'7"
Elevation is 75 feet MSL.
 
View others Airports in California

Operational data

Special qualification required
Current time UTC:
Current local time:
Weather at : KIPL - Imperial County ( 6 km )
METAR: KIPL 240753Z AUTO 15008KT 10SM CLR 31/14 A2981 RMK AO2 SLP094 T03110139 404060261
TAF: KIPL 240520Z 2406/2506 VRB04KT P6SM FEW110 FM241200 16004KT P6SM SKC FM241800 22004KT P6SM SKC FM242300 25012G20KT P6SM SKC FM250200 26016G26KT P6SM SKC FM250500 25010G18KT P6SM SKC
View NOTAMs / SUP AIP / TFR affecting this airport [VIEW]
Communications frequencies: [VIEW]

Runways:

Airport contact information

Address: El Centro United States

Satellite view of 76CN